createdAt,value
2022-12-11T00:01:18.112Z,12.90
2022-12-11T00:03:48.411Z,15.60
2022-12-11T00:06:20.476Z,17.70
2022-12-11T00:08:53.840Z,9.90
2022-12-11T00:11:23.639Z,11.20
2022-12-11T00:13:54.813Z,10.80
2022-12-11T00:16:26.958Z,11.50
2022-12-11T00:18:56.596Z,11.50
2022-12-11T00:21:25.400Z,16.60
2022-12-11T00:23:53.810Z,7.80
2022-12-11T00:26:22.655Z,11.20
2022-12-11T00:28:55.042Z,13.70
2022-12-11T00:31:25.830Z,11.50
2022-12-11T00:33:54.489Z,16.40
2022-12-11T00:36:26.261Z,16.70
2022-12-11T00:38:54.935Z,10.90
2022-12-11T00:41:24.435Z,13.30
2022-12-11T00:43:53.132Z,11.70
2022-12-11T00:46:21.745Z,14.60
2022-12-11T00:48:50.498Z,13.10
2022-12-11T00:51:20.261Z,16.20
2022-12-11T00:53:48.853Z,14.20
2022-12-11T00:56:20.563Z,13.10
2022-12-11T00:58:50.370Z,11.90
2022-12-11T01:01:34.734Z,15.10
2022-12-11T01:05:13.732Z,13.80
2022-12-11T01:07:42.333Z,13.50
2022-12-11T01:10:25.353Z,13.60
2022-12-11T01:12:55.411Z,12.00
2022-12-11T01:15:26.780Z,6.50
2022-12-11T01:17:55.495Z,12.40
2022-12-11T01:20:25.315Z,15.80
2022-12-11T01:22:55.860Z,11.70
2022-12-11T01:25:24.932Z,11.40
2022-12-11T01:27:55.064Z,9.60
2022-12-11T01:30:24.966Z,14.70
2022-12-11T01:32:53.350Z,11.40
2022-12-11T01:35:22.144Z,14.20
2022-12-11T01:37:50.474Z,15.80
2022-12-11T01:40:20.453Z,14.60
2022-12-11T01:42:48.688Z,10.10
2022-12-11T01:45:27.176Z,8.20
2022-12-11T01:48:02.681Z,13.90
2022-12-11T01:50:35.018Z,13.30
2022-12-11T01:53:08.354Z,12.20
2022-12-11T01:55:39.227Z,14.20
2022-12-11T01:58:10.366Z,14.90
2022-12-11T02:00:38.683Z,10.90
2022-12-11T02:03:07.012Z,8.80
2022-12-11T02:05:35.205Z,13.00
2022-12-11T02:08:05.132Z,12.30
2022-12-11T02:11:19.974Z,13.30
2022-12-11T02:14:06.999Z,8.80
2022-12-11T02:16:45.974Z,11.20
2022-12-11T02:19:37.138Z,12.90
2022-12-11T02:22:11.909Z,9.80
2022-12-11T02:25:04.199Z,11.50
2022-12-11T02:27:46.108Z,11.00
2022-12-11T02:30:16.216Z,9.20
2022-12-11T02:32:55.813Z,12.60
2022-12-11T02:35:26.995Z,11.70
2022-12-11T02:38:02.577Z,7.10
2022-12-11T02:40:34.418Z,8.30
2022-12-11T02:43:07.400Z,6.80
2022-12-11T02:45:39.134Z,12.80
2022-12-11T02:48:10.068Z,11.10
2022-12-11T02:50:44.656Z,6.80
2022-12-11T02:53:24.051Z,9.30
2022-12-11T02:55:59.559Z,10.90
2022-12-11T02:58:32.525Z,10.50
2022-12-11T03:01:00.688Z,12.70
2022-12-11T03:03:30.180Z,5.20
2022-12-11T03:05:58.341Z,9.90
2022-12-11T03:08:26.473Z,6.70
2022-12-11T03:10:54.789Z,8.00
2022-12-11T03:13:23.478Z,6.20
2022-12-11T03:16:25.694Z,8.70
2022-12-11T03:19:28.016Z,10.40
2022-12-11T03:22:09.867Z,9.50
2022-12-11T03:25:02.886Z,9.00
2022-12-11T03:27:37.142Z,10.60
2022-12-11T03:30:22.171Z,7.90
2022-12-11T03:33:26.690Z,9.20
2022-12-11T03:36:01.398Z,10.10
2022-12-11T03:38:54.069Z,7.30
2022-12-11T03:41:27.144Z,11.60
2022-12-11T03:43:59.138Z,8.80
2022-12-11T03:46:34.128Z,9.80
2022-12-11T03:49:07.983Z,10.30
2022-12-11T03:51:37.892Z,10.90
2022-12-11T03:54:07.163Z,11.10
2022-12-11T03:56:38.415Z,9.40
2022-12-11T03:59:06.683Z,6.60
2022-12-11T04:01:35.610Z,10.20
2022-12-11T04:04:04.431Z,7.80
2022-12-11T04:06:32.652Z,9.80
2022-12-11T04:09:00.814Z,7.90
2022-12-11T04:11:34.666Z,6.00
2022-12-11T04:14:30.399Z,10.50
2022-12-11T04:17:00.691Z,8.70
2022-12-11T04:19:48.156Z,7.90
2022-12-11T04:22:37.204Z,9.10
2022-12-11T04:25:08.029Z,13.00
2022-12-11T04:27:51.697Z,8.60
2022-12-11T04:30:23.447Z,11.60
2022-12-11T04:32:54.290Z,9.50
2022-12-11T04:35:23.073Z,7.10
2022-12-11T04:37:52.569Z,8.70
2022-12-11T04:40:20.967Z,8.80
2022-12-11T04:42:49.229Z,8.30
2022-12-11T04:45:18.638Z,11.40
2022-12-11T04:47:46.899Z,9.00
2022-12-11T04:50:15.883Z,6.30
2022-12-11T04:52:44.175Z,6.40
2022-12-11T04:55:13.420Z,7.80
2022-12-11T04:57:42.197Z,9.50
2022-12-11T05:00:12.167Z,7.30
2022-12-11T05:02:42.445Z,9.90
2022-12-11T05:05:12.106Z,11.70
2022-12-11T05:07:41.308Z,9.20
2022-12-11T05:10:10.506Z,13.20
2022-12-11T05:12:38.876Z,8.20
2022-12-11T05:15:08.047Z,5.70
2022-12-11T05:17:36.441Z,6.50
2022-12-11T05:20:05.238Z,10.10
2022-12-11T05:22:33.747Z,10.80
2022-12-11T05:25:02.007Z,11.40
2022-12-11T05:27:30.377Z,7.60
2022-12-11T05:29:59.695Z,8.60
2022-12-11T05:32:28.780Z,6.40
2022-12-11T05:34:57.368Z,9.40
2022-12-11T05:37:26.166Z,9.20
2022-12-11T05:39:56.984Z,9.30
2022-12-11T05:42:28.789Z,10.40
2022-12-11T05:44:57.177Z,9.10
2022-12-11T05:47:25.813Z,9.70
2022-12-11T05:49:53.874Z,8.80
2022-12-11T05:52:22.359Z,8.90
2022-12-11T05:54:50.841Z,7.90
2022-12-11T05:57:19.114Z,8.50
2022-12-11T05:59:47.492Z,6.80
2022-12-11T06:02:15.809Z,8.20
2022-12-11T06:04:44.862Z,5.90
2022-12-11T06:07:13.447Z,5.50
2022-12-11T06:09:42.419Z,8.60
2022-12-11T06:12:11.181Z,6.50
2022-12-11T06:14:39.344Z,7.40
2022-12-11T06:17:07.624Z,8.20
2022-12-11T06:19:37.097Z,7.70
2022-12-11T06:22:05.517Z,7.40
2022-12-11T06:24:34.097Z,7.50
2022-12-11T06:27:02.575Z,6.40
2022-12-11T06:29:30.637Z,4.70
2022-12-11T06:31:58.875Z,5.60
2022-12-11T06:34:27.475Z,7.50
2022-12-11T06:36:55.677Z,6.80
2022-12-11T06:39:24.054Z,6.60
2022-12-11T06:41:52.231Z,9.60
2022-12-11T06:44:20.505Z,8.50
2022-12-11T06:46:48.884Z,6.20
2022-12-11T06:49:17.142Z,7.50
2022-12-11T06:51:45.428Z,9.50
2022-12-11T06:54:13.929Z,9.90
2022-12-11T06:56:42.917Z,7.70
2022-12-11T06:59:12.901Z,9.30
2022-12-11T07:01:41.407Z,6.40
2022-12-11T07:04:09.588Z,6.00
2022-12-11T07:06:37.852Z,7.20
2022-12-11T07:09:07.267Z,5.10
2022-12-11T07:11:35.654Z,4.30
2022-12-11T07:14:04.955Z,9.10
2022-12-11T07:16:34.992Z,6.50
2022-12-11T07:19:03.753Z,4.80
2022-12-11T07:21:32.539Z,8.30
2022-12-11T07:24:01.701Z,4.00
2022-12-11T07:26:32.875Z,8.50
2022-12-11T07:29:01.777Z,7.20
2022-12-11T07:31:31.341Z,10.00
2022-12-11T07:34:02.933Z,7.90
2022-12-11T07:36:32.213Z,7.30
2022-12-11T07:39:01.435Z,7.70
2022-12-11T07:41:31.878Z,6.80
2022-12-11T07:44:01.658Z,5.30
2022-12-11T07:46:33.476Z,6.60
2022-12-11T07:49:03.052Z,6.30
2022-12-11T07:51:35.703Z,8.10
2022-12-11T07:54:08.464Z,5.80
2022-12-11T07:56:37.292Z,5.40
2022-12-11T07:59:07.299Z,7.70
2022-12-11T08:01:38.290Z,9.60
2022-12-11T08:04:10.828Z,5.60
2022-12-11T08:06:41.142Z,6.70
2022-12-11T08:09:18.944Z,6.80
2022-12-11T08:11:51.972Z,4.00
2022-12-11T08:14:21.228Z,7.50
2022-12-11T08:16:50.990Z,8.20
2022-12-11T08:19:19.513Z,4.80
2022-12-11T08:21:48.040Z,5.90
2022-12-11T08:24:21.397Z,6.80
2022-12-11T08:26:50.329Z,5.80
2022-12-11T08:29:19.002Z,6.40
2022-12-11T08:31:48.167Z,5.90
2022-12-11T08:34:17.742Z,7.30
2022-12-11T08:36:46.509Z,6.70
2022-12-11T08:39:15.369Z,4.80
2022-12-11T08:41:43.906Z,5.30
2022-12-11T08:44:16.723Z,7.30
2022-12-11T08:46:48.721Z,6.80
2022-12-11T08:49:18.420Z,4.90
2022-12-11T08:51:47.445Z,4.20
2022-12-11T08:54:16.803Z,5.30
2022-12-11T08:56:46.407Z,4.90
2022-12-11T08:59:17.030Z,3.40
2022-12-11T09:01:47.308Z,7.80
2022-12-11T09:04:16.003Z,5.80
2022-12-11T09:06:46.575Z,5.80
2022-12-11T09:09:16.779Z,7.10
2022-12-11T09:11:45.880Z,4.70
2022-12-11T09:14:16.494Z,5.20
2022-12-11T09:16:45.814Z,4.30
2022-12-11T09:19:15.938Z,6.40
2022-12-11T09:21:45.530Z,5.10
2022-12-11T09:24:15.973Z,3.50
2022-12-11T09:26:45.361Z,4.20
2022-12-11T09:29:16.091Z,4.70
2022-12-11T09:31:44.805Z,4.70
2022-12-11T09:34:14.384Z,4.80
2022-12-11T09:36:44.538Z,6.70
2022-12-11T09:39:16.471Z,6.20
2022-12-11T09:42:04.644Z,5.60
2022-12-11T09:44:47.069Z,5.90
2022-12-11T09:47:38.956Z,3.90
2022-12-11T09:50:10.835Z,4.60
2022-12-11T09:52:55.254Z,4.60
2022-12-11T09:55:34.508Z,3.90
2022-12-11T09:58:19.054Z,6.20
2022-12-11T10:01:09.311Z,7.00
2022-12-11T10:04:01.285Z,4.00
2022-12-11T10:06:57.333Z,4.70
2022-12-11T10:09:28.969Z,4.00
2022-12-11T10:12:00.659Z,5.70
2022-12-11T10:15:05.544Z,4.60
2022-12-11T10:17:40.444Z,7.20
2022-12-11T10:20:35.273Z,4.40
2022-12-11T10:23:08.889Z,4.30
2022-12-11T10:25:48.626Z,5.40
2022-12-11T10:28:21.223Z,5.60
2022-12-11T10:31:16.328Z,5.50
2022-12-11T10:34:00.162Z,5.00
2022-12-11T10:36:38.035Z,6.00
2022-12-11T10:39:20.387Z,6.00
2022-12-11T10:41:54.770Z,5.60
2022-12-11T10:44:26.862Z,7.40
2022-12-11T10:47:07.509Z,4.90
2022-12-11T10:49:38.984Z,6.40
2022-12-11T10:52:20.141Z,6.10
2022-12-11T10:54:59.524Z,6.10
2022-12-11T10:57:35.243Z,7.10
2022-12-11T11:00:27.507Z,5.20
2022-12-11T11:02:56.292Z,6.00
2022-12-11T11:05:36.474Z,6.10
2022-12-11T11:08:13.089Z,4.50
2022-12-11T11:11:01.213Z,4.70
2022-12-11T11:13:32.639Z,3.60
2022-12-11T11:16:15.049Z,4.10
2022-12-11T11:18:56.385Z,5.60
2022-12-11T11:21:27.008Z,6.30
2022-12-11T11:23:56.178Z,4.90
2022-12-11T11:26:38.294Z,6.70
2022-12-11T11:29:29.509Z,4.10
2022-12-11T11:32:15.794Z,6.20
2022-12-11T11:34:44.717Z,3.40
2022-12-11T11:37:32.697Z,3.50
2022-12-11T11:40:23.301Z,3.60
2022-12-11T11:43:15.876Z,4.30
2022-12-11T11:45:56.674Z,5.40
2022-12-11T11:48:35.293Z,4.40
2022-12-11T11:51:35.709Z,4.60
2022-12-11T11:54:19.335Z,5.80
2022-12-11T11:56:53.357Z,4.80
2022-12-11T11:59:43.645Z,3.80
2022-12-11T12:02:17.841Z,3.70
2022-12-11T12:04:50.075Z,4.30
2022-12-11T12:07:42.457Z,3.40
2022-12-11T12:10:26.919Z,3.20
2022-12-11T12:13:02.901Z,3.40
2022-12-11T12:15:58.663Z,3.60
2022-12-11T12:18:50.212Z,3.90
2022-12-11T12:21:30.454Z,5.00
2022-12-11T12:24:15.574Z,3.70
2022-12-11T12:26:54.155Z,3.70
2022-12-11T12:29:32.373Z,4.00
2022-12-11T12:32:14.763Z,3.80
2022-12-11T12:34:54.622Z,4.10
2022-12-11T12:37:36.964Z,3.10
2022-12-11T12:40:09.706Z,3.00
2022-12-11T12:42:41.800Z,5.70
2022-12-11T12:45:13.497Z,2.90
2022-12-11T12:47:50.363Z,3.90
2022-12-11T12:50:26.173Z,6.00
2022-12-11T12:52:57.261Z,3.90
2022-12-11T12:55:29.598Z,4.00
2022-12-11T12:58:05.656Z,5.30
2022-12-11T13:00:40.975Z,5.30
2022-12-11T13:03:33.567Z,4.10
2022-12-11T13:06:09.904Z,4.90
2022-12-11T13:08:46.725Z,4.80
2022-12-11T13:11:18.601Z,4.30
2022-12-11T13:14:07.416Z,5.50
2022-12-11T13:16:41.557Z,7.50
2022-12-11T13:19:27.894Z,5.50
2022-12-11T13:22:03.271Z,4.60
2022-12-11T13:24:34.129Z,4.80
2022-12-11T13:27:11.599Z,5.00
2022-12-11T13:29:42.475Z,4.80
2022-12-11T13:32:11.026Z,6.90
2022-12-11T13:34:50.968Z,4.80
2022-12-11T13:37:37.162Z,4.10
2022-12-11T13:40:17.219Z,4.60
2022-12-11T13:42:55.119Z,5.50
2022-12-11T13:45:55.059Z,4.40
2022-12-11T13:48:38.705Z,4.20
2022-12-11T13:51:08.487Z,5.10
2022-12-11T13:53:37.568Z,3.70
2022-12-11T13:56:08.409Z,3.80
2022-12-11T13:58:41.171Z,3.70
2022-12-11T14:01:21.052Z,4.10
2022-12-11T14:04:20.373Z,3.70
2022-12-11T14:06:49.985Z,5.20
2022-12-11T14:09:23.228Z,4.30
2022-12-11T14:11:56.782Z,4.40
2022-12-11T14:14:35.171Z,5.20
2022-12-11T14:17:05.596Z,3.90
2022-12-11T14:19:35.404Z,4.10
2022-12-11T14:22:07.690Z,3.50
2022-12-11T14:24:37.062Z,4.30
2022-12-11T14:27:17.564Z,5.50
2022-12-11T14:29:47.583Z,5.10
2022-12-11T14:32:31.528Z,4.50
2022-12-11T14:35:05.016Z,3.60
2022-12-11T14:37:36.259Z,3.90
2022-12-11T14:40:10.501Z,4.20
2022-12-11T14:42:58.590Z,4.50
2022-12-11T14:45:36.723Z,7.50
2022-12-11T14:48:24.255Z,4.20
2022-12-11T14:50:58.771Z,4.00
2022-12-11T14:53:44.631Z,4.20
2022-12-11T14:56:28.845Z,3.80
2022-12-11T14:59:19.813Z,4.10
2022-12-11T15:01:59.233Z,4.40
2022-12-11T15:04:33.721Z,3.90
2022-12-11T15:07:02.928Z,3.90
2022-12-11T15:09:36.003Z,3.70
2022-12-11T15:12:15.592Z,3.80
2022-12-11T15:15:01.192Z,3.90
2022-12-11T15:17:34.196Z,3.50
2022-12-11T15:20:21.422Z,3.90
2022-12-11T15:22:52.138Z,3.40
2022-12-11T15:25:24.398Z,3.10
2022-12-11T15:27:57.055Z,4.00
2022-12-11T15:30:33.228Z,4.10
2022-12-11T15:33:20.117Z,3.90
2022-12-11T15:36:06.305Z,2.90
2022-12-11T15:38:39.708Z,3.50
2022-12-11T15:41:18.488Z,3.80
2022-12-11T15:43:48.319Z,3.00
2022-12-11T15:46:18.231Z,3.80
2022-12-11T15:48:49.509Z,3.20
2022-12-11T15:51:20.063Z,3.90
2022-12-11T15:53:49.063Z,3.30
2022-12-11T15:56:20.004Z,3.40
2022-12-11T15:58:50.395Z,3.50
2022-12-11T16:01:20.439Z,3.60
2022-12-11T16:03:50.997Z,5.90
2022-12-11T16:06:21.398Z,4.40
2022-12-11T16:08:51.863Z,4.80
2022-12-11T16:11:23.577Z,3.70
2022-12-11T16:13:53.467Z,4.20
2022-12-11T16:16:23.534Z,4.20
2022-12-11T16:18:53.582Z,4.90
2022-12-11T16:21:23.758Z,2.90
2022-12-11T16:23:53.707Z,5.90
2022-12-11T16:26:23.646Z,4.00
2022-12-11T16:28:53.938Z,3.50
2022-12-11T16:31:24.704Z,3.40
2022-12-11T16:33:55.213Z,4.80
2022-12-11T16:36:25.849Z,3.90
2022-12-11T16:38:56.232Z,3.60
2022-12-11T16:41:29.030Z,4.00
2022-12-11T16:44:01.795Z,4.20
2022-12-11T16:46:31.202Z,2.80
2022-12-11T16:49:00.384Z,3.50
2022-12-11T16:51:29.251Z,3.80
2022-12-11T16:53:58.687Z,6.20
2022-12-11T16:56:28.566Z,5.40
2022-12-11T16:58:58.211Z,4.40
2022-12-11T17:01:27.543Z,4.70
2022-12-11T17:03:56.810Z,4.60
2022-12-11T17:06:31.267Z,4.90
2022-12-11T17:09:01.871Z,8.50
2022-12-11T17:11:31.494Z,4.40
2022-12-11T17:14:01.288Z,5.10
2022-12-11T17:16:30.898Z,5.60
2022-12-11T17:19:00.225Z,6.00
2022-12-11T17:21:29.206Z,4.60
2022-12-11T17:23:59.123Z,6.00
2022-12-11T17:26:29.012Z,4.10
2022-12-11T17:28:58.511Z,4.10
2022-12-11T17:31:27.758Z,4.90
2022-12-11T17:34:00.732Z,5.10
2022-12-11T17:36:31.260Z,5.10
2022-12-11T17:39:00.879Z,3.80
2022-12-11T17:41:31.497Z,3.50
2022-12-11T17:44:00.592Z,4.80
2022-12-11T17:46:29.704Z,4.10
2022-12-11T17:49:00.508Z,5.50
2022-12-11T17:51:29.939Z,5.40
2022-12-11T17:53:59.132Z,5.90
2022-12-11T17:56:28.490Z,6.00
2022-12-11T17:58:59.533Z,7.20
2022-12-11T18:01:28.979Z,6.10
2022-12-11T18:04:01.820Z,5.80
2022-12-11T18:06:30.860Z,5.90
2022-12-11T18:09:00.130Z,5.70
2022-12-11T18:11:29.080Z,5.30
2022-12-11T18:13:59.514Z,5.10
2022-12-11T18:16:33.188Z,5.80
2022-12-11T18:19:02.963Z,5.00
2022-12-11T18:21:35.796Z,4.70
2022-12-11T18:24:05.109Z,4.10
2022-12-11T18:26:34.536Z,7.90
2022-12-11T18:29:06.091Z,5.20
2022-12-11T18:31:41.936Z,5.20
2022-12-11T18:34:13.193Z,8.70
2022-12-11T18:36:44.535Z,9.40
2022-12-11T18:39:14.734Z,7.10
2022-12-11T18:41:53.887Z,9.50
2022-12-11T18:44:34.743Z,7.60
2022-12-11T18:47:03.737Z,4.80
2022-12-11T18:49:35.415Z,9.70
2022-12-11T18:52:07.046Z,6.40
2022-12-11T18:54:37.567Z,5.80
2022-12-11T18:57:06.934Z,9.00
2022-12-11T18:59:36.183Z,9.30
2022-12-11T19:02:05.107Z,7.80
2022-12-11T19:04:36.525Z,6.00
2022-12-11T19:07:05.758Z,6.30
2022-12-11T19:09:38.199Z,6.60
2022-12-11T19:12:08.201Z,7.50
2022-12-11T19:14:37.933Z,6.80
2022-12-11T19:17:07.885Z,6.70
2022-12-11T19:19:38.297Z,7.70
2022-12-11T19:22:07.276Z,6.50
2022-12-11T19:24:35.816Z,7.00
2022-12-11T19:27:09.956Z,8.50
2022-12-11T19:29:43.599Z,4.90
2022-12-11T19:32:12.830Z,7.70
2022-12-11T19:34:42.116Z,5.60
2022-12-11T19:37:12.398Z,6.50
2022-12-11T19:39:42.704Z,7.50
2022-12-11T19:42:14.003Z,6.30
2022-12-11T19:44:43.888Z,5.50
2022-12-11T19:47:12.613Z,6.70
2022-12-11T19:49:41.732Z,6.20
2022-12-11T19:52:10.569Z,6.60
2022-12-11T19:54:39.444Z,6.20
2022-12-11T19:57:08.605Z,6.80
2022-12-11T19:59:38.454Z,5.50
2022-12-11T20:02:08.118Z,5.90
2022-12-11T20:04:37.211Z,3.60
2022-12-11T20:07:06.717Z,4.50
2022-12-11T20:09:36.836Z,10.00
2022-12-11T20:12:11.150Z,7.50
2022-12-11T20:14:40.555Z,7.90
2022-12-11T20:17:13.025Z,7.80
2022-12-11T20:19:44.399Z,6.40
2022-12-11T20:22:13.501Z,6.00
2022-12-11T20:24:43.138Z,8.70
2022-12-11T20:27:12.906Z,5.40
2022-12-11T20:29:41.804Z,6.90
2022-12-11T20:32:12.812Z,6.60
2022-12-11T20:34:42.026Z,7.20
2022-12-11T20:37:11.439Z,5.30
2022-12-11T20:39:40.586Z,4.90
2022-12-11T20:42:10.771Z,5.00
2022-12-11T20:44:44.120Z,4.80
2022-12-11T20:47:27.277Z,4.30
2022-12-11T20:50:07.382Z,6.10
2022-12-11T20:52:43.579Z,5.90
2022-12-11T20:55:34.492Z,6.90
2022-12-11T20:58:06.969Z,6.30
2022-12-11T21:01:10.619Z,4.90
2022-12-11T21:03:52.448Z,5.00
2022-12-11T21:06:35.406Z,6.40
2022-12-11T21:09:14.188Z,5.90
2022-12-11T21:11:44.675Z,4.60
2022-12-11T21:14:14.648Z,6.60
2022-12-11T21:16:45.279Z,6.00
2022-12-11T21:19:17.321Z,5.20
2022-12-11T21:21:47.121Z,5.60
2022-12-11T21:24:23.123Z,6.50
2022-12-11T21:26:55.608Z,7.20
2022-12-11T21:29:28.131Z,6.50
2022-12-11T21:31:57.074Z,5.30
2022-12-11T21:34:27.092Z,5.30
2022-12-11T21:36:57.292Z,4.90
2022-12-11T21:39:28.975Z,4.30
2022-12-11T21:41:58.579Z,4.90
2022-12-11T21:47:16.730Z,6.00
2022-12-11T21:49:46.246Z,4.70
2022-12-11T21:52:14.816Z,6.00
2022-12-11T21:54:43.708Z,4.30
2022-12-11T21:57:12.087Z,5.60
2022-12-11T21:59:40.872Z,4.60
2022-12-11T22:02:12.633Z,6.60
2022-12-11T22:04:42.556Z,6.80
2022-12-11T22:07:11.144Z,4.80
2022-12-11T22:09:39.950Z,4.00
2022-12-11T22:12:10.545Z,5.40
2022-12-11T22:14:39.491Z,5.90
2022-12-11T22:17:08.333Z,7.10
2022-12-11T22:19:37.027Z,5.00
2022-12-11T22:22:05.816Z,6.40
2022-12-11T22:24:35.325Z,6.70
2022-12-11T22:27:04.557Z,6.50
2022-12-11T22:29:33.314Z,5.40
2022-12-11T22:32:02.098Z,5.80
2022-12-11T22:34:30.683Z,3.80
2022-12-11T22:36:59.372Z,6.00
2022-12-11T22:39:27.626Z,4.80
2022-12-11T22:41:56.018Z,5.20
2022-12-11T22:44:24.187Z,4.00
2022-12-11T22:46:52.360Z,4.60
2022-12-11T22:49:21.053Z,4.60
2022-12-11T22:51:49.629Z,3.00
2022-12-11T22:54:18.020Z,4.50
2022-12-11T22:56:46.288Z,6.00
2022-12-11T22:59:15.034Z,3.50
2022-12-11T23:01:43.344Z,4.80
2022-12-11T23:04:12.555Z,4.70
2022-12-11T23:06:41.264Z,3.60
2022-12-11T23:09:11.840Z,4.40
2022-12-11T23:11:40.466Z,3.90
2022-12-11T23:14:14.887Z,5.90
2022-12-11T23:16:43.828Z,4.00
2022-12-11T23:19:12.880Z,4.50
2022-12-11T23:21:41.641Z,5.20
2022-12-11T23:24:11.047Z,6.30
2022-12-11T23:26:40.811Z,4.70
2022-12-11T23:29:09.242Z,4.30
2022-12-11T23:31:37.755Z,3.60
2022-12-11T23:34:05.890Z,4.60
2022-12-11T23:36:34.558Z,4.40
2022-12-11T23:39:03.587Z,5.20
2022-12-11T23:41:31.793Z,6.10
2022-12-11T23:44:00.638Z,5.70
2022-12-11T23:46:28.894Z,3.10
2022-12-11T23:48:57.296Z,5.30
2022-12-11T23:51:25.733Z,4.40
2022-12-11T23:53:54.725Z,5.50
2022-12-11T23:56:25.403Z,4.40
2022-12-11T23:58:54.790Z,4.60
